Terminal Aerodrome Forecast
Issued by NWS Greer, SC

Current Version | Previous Version | Text Only | Print | Product List | Glossary On
Versions: 1 2 3 4 5 6 7 8 9 10 11 12 13 14 15 16
000
FTUS42 KGSP 271853 AAA
TAFAVL
TAF AMD
KAVL 271853Z 2719/2818 22004KT P6SM FEW040 BKN090
     FM280400 VRB02KT P6SM SCT050
     FM280700 00000KT 3SM BR SCT010
     FM280900 VRB02KT 1SM BR BKN005
     FM281400 24005KT P6SM FEW250=

USA.gov is the U.S. government's official web portal to all federal, state and local government web resources and services.